Hallein, Austria
Current Conditions -  °F | °C
As of 1:20 PM on Monday 22 Dec 2014 (Local Time) from LOWS Reporting Station
Clear Clear  
Wind Chill: 37°   Ceiling: Unl
Heat Index: 41°   Visibility: 6mi
Dew Point: 30°   Wind: 6mph
Humidity: 65%   Direction: 120°ESE
Pressure: 30.3"   Gusts: NA
Location:  47.68°N, 13.11°E
Report Text: LOWS 221120Z 12005KT 090V160 CAVOK 05/M01 Q1026 WS ALL RWY NOSIG
Loading
Personal Weather Stations






























Interactive Weather Map New forecast layout! Learn more

10-Day Weather Forecast

Advertisements
Track Severe Weather on mobile